Time;durP1;ratioP1;P1;durP2;ratioP2;P2;SDS_P1;SDS_P2;PMS_P1;PMS_P2;Temp;Humidity;BMP_temperature;BMP_pressure;BME280_temperature;BME280_humidity;BME280_pressure;Samples;Min_cycle;Max_cycle;Signal;HPM_P1;HPM_P2
2021/04/01 00:00:23;;;;;;;31.45;18.95;;;19.70;38.30;;;;;;2091088;28;20041;-58
2021/04/01 00:01:45;;;;;;;31.85;19.10;;;19.60;38.50;;;;;;2093268;28;20029;-58
2021/04/01 00:03:07;;;;;;;34.33;19.10;;;19.60;38.50;;;;;;2096774;28;20044;-57
2021/04/01 00:04:27;;;;;;;32.97;18.60;;;19.60;38.30;;;;;;2089796;28;20029;-58
2021/04/01 00:05:48;;;;;;;32.97;20.17;;;19.60;38.40;;;;;;2096973;28;20105;-58
2021/04/01 00:07:11;;;;;;;36.92;19.38;;;19.60;38.50;;;;;;2096472;28;20032;-58
2021/04/01 00:08:32;;;;;;;36.42;18.98;;;19.60;38.30;;;;;;2091139;28;20104;-58
2021/04/01 00:09:53;;;;;;;36.97;19.50;;;19.50;38.00;;;;;;2099119;28;20017;-58
2021/04/01 00:11:14;;;;;;;38.30;21.17;;;19.50;38.00;;;;;;2097215;28;20036;-58
2021/04/01 00:12:35;;;;;;;35.72;20.00;;;19.50;38.00;;;;;;2090451;28;20033;-57
2021/04/01 00:13:56;;;;;;;34.90;19.42;;;19.50;38.10;;;;;;2089979;28;20036;-58
2021/04/01 00:15:17;;;;;;;33.70;19.13;;;19.50;38.10;;;;;;2099863;28;20044;-58
2021/04/01 00:16:38;;;;;;;37.28;20.58;;;19.50;38.10;;;;;;2107750;28;20038;-57
2021/04/01 00:17:59;;;;;;;35.67;20.33;;;19.50;38.10;;;;;;2111631;28;20020;-57
2021/04/01 00:19:20;;;;;;;36.15;19.67;;;19.50;38.00;;;;;;2109222;28;20032;-57
2021/04/01 00:20:41;;;;;;;35.05;20.20;;;19.40;37.80;;;;;;2113640;28;20036;-58
2021/04/01 00:22:02;;;;;;;34.28;20.08;;;19.40;37.70;;;;;;2111959;28;20410;-58
2021/04/01 00:23:24;;;;;;;36.33;19.85;;;19.40;37.60;;;;;;2111881;28;20043;-57
2021/04/01 00:24:45;;;;;;;33.63;19.25;;;19.40;37.80;;;;;;2112864;28;20809;-58
2021/04/01 00:26:06;;;;;;;35.47;19.67;;;19.40;37.90;;;;;;2113419;28;20768;-58
2021/04/01 00:27:27;;;;;;;37.40;21.13;;;19.40;37.80;;;;;;2112929;28;20370;-57
2021/04/01 00:28:48;;;;;;;37.13;20.88;;;19.40;37.60;;;;;;2114285;28;20028;-58
2021/04/01 00:30:10;;;;;;;38.65;20.33;;;19.40;37.50;;;;;;2112612;28;20068;-59
2021/04/01 00:31:31;;;;;;;36.17;19.35;;;19.40;37.50;;;;;;2112019;27;20051;-58
2021/04/01 00:32:52;;;;;;;35.90;19.60;;;19.40;37.50;;;;;;2112601;28;20389;-58
2021/04/01 00:34:13;;;;;;;32.08;19.00;;;19.40;37.50;;;;;;2113807;28;20096;-58
2021/04/01 00:35:34;;;;;;;33.75;18.85;;;19.40;37.70;;;;;;2108430;28;20411;-58
2021/04/01 00:36:55;;;;;;;37.17;19.38;;;19.40;38.20;;;;;;2112868;28;20034;-59
2021/04/01 00:38:16;;;;;;;35.30;18.40;;;19.40;37.50;;;;;;2112822;28;20035;-58
2021/04/01 00:39:37;;;;;;;33.88;19.60;;;19.40;37.50;;;;;;2107709;28;20027;-58
2021/04/01 00:40:58;;;;;;;34.85;19.83;;;19.40;37.50;;;;;;2112505;28;20027;-58
2021/04/01 00:42:19;;;;;;;31.23;19.00;;;19.40;37.70;;;;;;2113905;28;20027;-58
2021/04/01 00:43:40;;;;;;;32.17;18.55;;;19.40;38.00;;;;;;2109990;28;20032;-57
2021/04/01 00:45:04;;;;;;;33.05;19.20;;;19.40;38.00;;;;;;2103322;28;20491;-57
2021/04/01 00:46:25;;;;;;;31.55;18.85;;;19.40;38.70;;;;;;2110313;28;20027;-59
2021/04/01 00:47:48;;;;;;;30.17;18.55;;;19.30;38.20;;;;;;2113470;28;20024;-58
2021/04/01 00:49:09;;;;;;;33.58;19.15;;;19.30;38.40;;;;;;2113194;28;20035;-58
2021/04/01 00:50:31;;;;;;;33.00;19.55;;;19.30;38.50;;;;;;2107234;28;20035;-58
2021/04/01 00:51:52;;;;;;;30.15;18.02;;;19.30;38.80;;;;;;2109275;28;20028;-57
2021/04/01 00:53:13;;;;;;;32.72;19.02;;;19.20;38.60;;;;;;2112724;28;20042;-58
2021/04/01 00:54:35;;;;;;;35.40;19.05;;;19.20;38.60;;;;;;2112420;28;20033;-59
2021/04/01 00:55:56;;;;;;;35.03;19.67;;;19.20;38.70;;;;;;2112443;28;20042;-57
2021/04/01 00:57:17;;;;;;;28.90;19.58;;;19.20;38.70;;;;;;2114156;28;20050;-58
2021/04/01 00:58:38;;;;;;;33.83;19.70;;;19.10;38.70;;;;;;2113696;28;20043;-58
2021/04/01 01:00:00;;;;;;;33.03;18.90;;;19.10;38.90;;;;;;2101861;28;20044;-58
2021/04/01 01:01:41;;;;;;;34.10;19.23;;;19.10;39.10;;;;;;2110747;28;20023;-58
2021/04/01 01:03:03;;;;;;;26.13;17.30;;;19.10;39.30;;;;;;2112484;28;20834;-58
2021/04/01 01:04:24;;;;;;;33.28;18.83;;;19.10;39.20;;;;;;2097553;28;20375;-58
2021/04/01 01:05:45;;;;;;;32.28;18.92;;;19.10;39.00;;;;;;2110308;28;20024;-58
2021/04/01 01:07:06;;;;;;;33.20;18.45;;;19.00;39.00;;;;;;2112449;28;20114;-57
2021/04/01 01:08:27;;;;;;;30.10;17.25;;;19.00;38.90;;;;;;2112425;28;20110;-58
2021/04/01 01:09:48;;;;;;;30.63;17.77;;;19.00;38.90;;;;;;2113280;28;20074;-57
2021/04/01 01:11:09;;;;;;;35.95;18.92;;;19.00;38.80;;;;;;2113131;28;20026;-58
2021/04/01 01:12:30;;;;;;;32.00;18.27;;;18.90;38.70;;;;;;2107199;28;20028;-58
2021/04/01 01:13:51;;;;;;;28.08;17.67;;;18.90;38.80;;;;;;2110415;28;20031;-57
2021/04/01 01:15:13;;;;;;;29.25;17.23;;;18.90;38.80;;;;;;2111414;28;20035;-58
2021/04/01 01:16:35;;;;;;;31.33;17.55;;;18.90;38.80;;;;;;2110322;28;20118;-58
2021/04/01 01:17:56;;;;;;;30.77;17.98;;;18.90;39.00;;;;;;2113330;28;20080;-58
2021/04/01 01:19:18;;;;;;;30.88;17.10;;;18.90;39.30;;;;;;2113609;28;20027;-58
2021/04/01 01:20:39;;;;;;;31.80;18.17;;;18.90;39.30;;;;;;2109210;28;20040;-58
2021/04/01 01:22:01;;;;;;;28.55;17.48;;;18.80;39.20;;;;;;2110643;28;20034;-58
2021/04/01 01:23:22;;;;;;;28.30;17.08;;;18.80;39.10;;;;;;2104338;28;20032;-58
2021/04/01 01:24:44;;;;;;;26.80;17.15;;;18.80;39.10;;;;;;2112500;28;20023;-58
2021/04/01 01:26:04;;;;;;;29.67;17.45;;;18.80;39.10;;;;;;2112425;28;20023;-58
2021/04/01 01:27:25;;;;;;;30.58;17.65;;;18.80;39.20;;;;;;2112989;28;20028;-58
2021/04/01 01:28:47;;;;;;;27.67;16.77;;;18.80;39.30;;;;;;2112929;28;20032;-58
2021/04/01 01:30:13;;;;;;;31.95;17.65;;;18.70;39.40;;;;;;2112867;28;20024;-57
2021/04/01 01:31:39;;;;;;;30.08;17.38;;;18.70;39.50;;;;;;2104154;28;20660;-57
2021/04/01 01:33:05;;;;;;;29.80;17.67;;;18.70;39.80;;;;;;2111253;27;20023;-58
2021/04/01 01:34:26;;;;;;;30.50;17.60;;;18.70;39.50;;;;;;2114460;27;20458;-58
2021/04/01 01:35:52;;;;;;;25.30;16.52;;;18.60;39.60;;;;;;2111860;28;20035;-58
2021/04/01 01:37:14;;;;;;;32.28;18.90;;;18.60;40.10;;;;;;2111138;28;20059;-58
2021/04/01 01:38:35;;;;;;;33.67;19.23;;;18.60;39.70;;;;;;2114225;28;20063;-58
2021/04/01 01:39:56;;;;;;;31.23;18.73;;;18.60;39.60;;;;;;2110806;28;20112;-58
2021/04/01 01:41:17;;;;;;;32.20;19.25;;;18.60;39.80;;;;;;2111988;28;20087;-58
2021/04/01 01:42:38;;;;;;;33.47;18.30;;;18.50;39.90;;;;;;2107179;28;20038;-58
2021/04/01 01:44:00;;;;;;;30.20;17.30;;;18.50;40.10;;;;;;2112557;28;20019;-58
2021/04/01 01:45:22;;;;;;;35.42;19.50;;;18.50;40.10;;;;;;2105330;28;20040;-59
2021/04/01 01:46:43;;;;;;;31.55;18.40;;;18.40;40.20;;;;;;2108807;28;20023;-59
2021/04/01 01:48:04;;;;;;;34.70;19.40;;;18.50;40.10;;;;;;2113299;28;20023;-58
2021/04/01 01:49:25;;;;;;;34.85;18.80;;;18.40;40.20;;;;;;2113183;28;20023;-58
2021/04/01 01:50:47;;;;;;;29.70;18.05;;;18.40;40.30;;;;;;2111141;28;20027;-58
2021/04/01 01:52:08;;;;;;;28.92;18.17;;;18.40;40.50;;;;;;2112929;28;20023;-58
2021/04/01 01:53:29;;;;;;;31.38;18.25;;;18.40;40.60;;;;;;2111310;28;20027;-58
2021/04/01 01:54:49;;;;;;;31.38;18.85;;;18.40;40.70;;;;;;2109698;28;20032;-58
2021/04/01 01:56:10;;;;;;;32.58;18.95;;;18.40;40.70;;;;;;2113238;28;20035;-58
2021/04/01 01:57:33;;;;;;;31.10;18.70;;;18.40;40.70;;;;;;2111417;28;20461;-58
2021/04/01 01:58:55;;;;;;;33.30;19.85;;;18.40;40.70;;;;;;2112252;28;20038;-58
2021/04/01 02:00:20;;;;;;;34.03;18.95;;;18.30;40.60;;;;;;2111915;28;20073;-58
2021/04/01 02:01:41;;;;;;;30.33;18.40;;;18.30;40.70;;;;;;2107775;28;20024;-58
2021/04/01 02:03:07;;;;;;;29.40;18.10;;;18.30;40.70;;;;;;2112032;28;20032;-57
2021/04/01 02:04:28;;;;;;;32.70;19.88;;;18.30;40.90;;;;;;2112218;28;20640;-58
2021/04/01 02:05:49;;;;;;;30.15;19.02;;;18.30;40.90;;;;;;2112220;28;20031;-58
2021/04/01 02:07:10;;;;;;;31.60;19.33;;;18.30;40.80;;;;;;2112199;28;20019;-58
2021/04/01 02:08:31;;;;;;;35.15;20.30;;;18.20;40.70;;;;;;2107513;28;20035;-58
2021/04/01 02:09:52;;;;;;;34.65;19.20;;;18.20;40.80;;;;;;2109403;28;20054;-58
2021/04/01 02:11:14;;;;;;;33.67;19.52;;;18.20;41.00;;;;;;2111848;28;20570;-58
2021/04/01 02:12:40;;;;;;;33.88;19.08;;;18.20;41.10;;;;;;2112459;28;20044;-59
2021/04/01 02:14:00;;;;;;;32.50;20.20;;;18.20;41.20;;;;;;2112232;28;20031;-59
2021/04/01 02:15:25;;;;;;;30.30;19.27;;;18.20;41.10;;;;;;2105142;28;20063;-59
2021/04/01 02:16:46;;;;;;;33.75;19.13;;;18.20;41.10;;;;;;2109816;28;20031;-54
2021/04/01 02:18:09;;;;;;;31.38;18.42;;;18.10;41.00;;;;;;2103944;28;20382;-57
2021/04/01 02:19:30;;;;;;;34.28;20.55;;;18.10;40.90;;;;;;2108784;28;20107;-56
2021/04/01 02:20:53;;;;;;;32.17;18.70;;;18.10;40.90;;;;;;2112130;28;20066;-59
2021/04/01 02:22:14;;;;;;;34.08;19.33;;;18.10;40.90;;;;;;2113170;28;20462;-58
2021/04/01 02:23:36;;;;;;;33.78;19.65;;;18.10;40.70;;;;;;2112151;28;20032;-58
2021/04/01 02:24:57;;;;;;;36.90;20.42;;;18.10;40.80;;;;;;2111500;28;20084;-58
2021/04/01 02:26:18;;;;;;;35.92;19.88;;;18.10;40.80;;;;;;2112122;28;20019;-57
2021/04/01 02:27:39;;;;;;;37.67;20.90;;;18.10;40.90;;;;;;2107593;28;20020;-57
2021/04/01 02:29:00;;;;;;;35.03;20.95;;;18.10;41.00;;;;;;2112870;28;20023;-58
2021/04/01 02:30:21;;;;;;;35.03;19.23;;;18.10;41.30;;;;;;2112473;28;20038;-58
2021/04/01 02:31:42;;;;;;;34.95;19.42;;;18.10;41.40;;;;;;2107298;28;20030;-58
2021/04/01 02:33:04;;;;;;;35.47;19.17;;;18.00;41.30;;;;;;2111821;28;20047;-58
2021/04/01 02:34:25;;;;;;;34.72;19.75;;;18.00;41.20;;;;;;2109048;27;20035;-58
2021/04/01 02:35:46;;;;;;;35.10;19.58;;;18.10;41.40;;;;;;2116869;27;20027;-58
2021/04/01 02:37:07;;;;;;;35.00;20.17;;;18.10;41.40;;;;;;2111718;28;20057;-58
2021/04/01 02:38:29;;;;;;;35.67;20.38;;;18.10;41.30;;;;;;2109159;28;20031;-58
2021/04/01 02:39:49;;;;;;;33.25;19.58;;;18.10;41.20;;;;;;2112308;28;20035;-58
2021/04/01 02:41:11;;;;;;;36.50;20.05;;;18.10;41.10;;;;;;2105981;28;20112;-58
2021/04/01 02:42:32;;;;;;;33.80;19.10;;;18.10;41.00;;;;;;2108369;28;20062;-57
2021/04/01 02:43:53;;;;;;;32.00;20.40;;;18.10;41.00;;;;;;2111716;28;20114;-58
2021/04/01 02:45:14;;;;;;;33.92;19.98;;;18.10;41.00;;;;;;2112729;28;20043;-58
2021/04/01 02:46:35;;;;;;;35.67;19.90;;;18.10;40.90;;;;;;2106494;28;20028;-58
2021/04/01 02:47:56;;;;;;;34.28;20.48;;;18.10;40.90;;;;;;2111424;28;20031;-58
2021/04/01 02:49:17;;;;;;;36.40;19.95;;;18.10;40.80;;;;;;2111248;28;20027;-58
2021/04/01 02:50:38;;;;;;;35.10;20.17;;;18.10;40.80;;;;;;2106772;28;20076;-58
2021/04/01 02:51:59;;;;;;;34.30;19.48;;;18.10;41.00;;;;;;2109991;28;20071;-58
2021/04/01 02:53:20;;;;;;;35.05;19.52;;;18.10;41.00;;;;;;2104858;28;20031;-58
2021/04/01 02:54:41;;;;;;;32.63;19.52;;;18.10;40.90;;;;;;2112441;28;20068;-59
2021/04/01 02:56:02;;;;;;;33.97;21.02;;;18.10;41.00;;;;;;2111353;28;20513;-58
2021/04/01 02:57:23;;;;;;;35.30;20.58;;;18.10;41.00;;;;;;2106984;28;20115;-58
2021/04/01 02:58:44;;;;;;;36.65;19.77;;;18.10;41.00;;;;;;2099330;28;20119;-58
2021/04/01 03:00:14;;;;;;;37.55;20.00;;;18.10;40.90;;;;;;2110184;28;20525;-56
2021/04/01 03:01:36;;;;;;;36.60;20.42;;;18.10;41.10;;;;;;2106591;28;20032;-58
2021/04/01 03:04:58;;;;;;;36.65;20.33;;;18.10;40.90;;;;;;2093738;28;20063;-58
2021/04/01 03:06:19;;;;;;;32.38;19.23;;;18.10;40.80;;;;;;2087553;28;20021;-58
2021/04/01 03:07:40;;;;;;;37.38;20.38;;;18.10;40.80;;;;;;2090703;28;20021;-58
2021/04/01 03:09:03;;;;;;;36.70;20.70;;;18.10;40.80;;;;;;2096282;28;20220;-58
2021/04/01 03:10:24;;;;;;;36.28;19.63;;;18.00;40.80;;;;;;2090799;28;20029;-58
2021/04/01 03:11:45;;;;;;;39.55;20.50;;;18.10;40.80;;;;;;2108373;28;20354;-58
2021/04/01 03:13:05;;;;;;;31.20;18.55;;;18.00;40.70;;;;;;2102423;28;20032;-58
2021/04/01 03:14:26;;;;;;;32.45;18.55;;;18.00;40.70;;;;;;2109170;28;20028;-58
2021/04/01 03:15:49;;;;;;;34.97;20.38;;;18.00;40.80;;;;;;2112127;28;20117;-57
2021/04/01 03:17:10;;;;;;;33.97;19.73;;;18.00;40.90;;;;;;2114203;28;20028;-58
2021/04/01 03:18:31;;;;;;;36.20;20.35;;;18.00;40.80;;;;;;2110959;28;20031;-58
2021/04/01 03:19:52;;;;;;;35.92;20.63;;;18.00;41.00;;;;;;2108793;28;20420;-58
2021/04/01 03:21:13;;;;;;;35.83;20.67;;;18.00;40.90;;;;;;2099950;28;20033;-58
2021/04/01 03:22:35;;;;;;;34.33;20.23;;;18.00;41.00;;;;;;2106727;28;20094;-58
2021/04/01 03:23:56;;;;;;;37.00;20.65;;;18.00;41.20;;;;;;2111329;28;20024;-58
2021/04/01 03:25:17;;;;;;;35.35;20.15;;;18.00;41.30;;;;;;2112441;28;20038;-58
2021/04/01 03:26:38;;;;;;;32.70;20.23;;;18.00;41.40;;;;;;2106660;28;20042;-58
2021/04/01 03:28:00;;;;;;;35.33;20.60;;;18.00;41.50;;;;;;2112172;28;20030;-58
2021/04/01 03:29:21;;;;;;;35.20;19.17;;;17.90;41.50;;;;;;2105361;28;20052;-57
2021/04/01 03:30:51;;;;;;;34.97;20.75;;;18.00;41.50;;;;;;2111659;28;20092;-57
2021/04/01 03:32:12;;;;;;;36.83;19.25;;;17.90;41.50;;;;;;2112570;28;20382;-58
2021/04/01 03:33:34;;;;;;;33.60;20.98;;;18.00;41.50;;;;;;2105223;28;20131;-58
2021/04/01 03:34:54;;;;;;;34.35;19.95;;;17.90;41.50;;;;;;2113667;28;20043;-58
2021/04/01 03:36:15;;;;;;;30.55;19.48;;;17.90;41.60;;;;;;2103456;28;20032;-58
2021/04/01 03:37:37;;;;;;;31.40;19.65;;;17.90;41.70;;;;;;2098647;28;20040;-58
2021/04/01 03:38:58;;;;;;;34.35;19.63;;;17.90;41.80;;;;;;2108796;28;20034;-58
2021/04/01 03:40:20;;;;;;;37.47;21.42;;;17.90;41.80;;;;;;2103032;28;20774;-58
2021/04/01 03:41:41;;;;;;;35.70;20.65;;;17.90;41.80;;;;;;2106790;28;20173;-57
2021/04/01 03:43:02;;;;;;;33.05;20.08;;;17.80;41.80;;;;;;2104181;28;20024;-59
2021/04/01 03:44:23;;;;;;;33.60;20.00;;;17.80;41.80;;;;;;2105738;28;20035;-58
2021/04/01 03:45:44;;;;;;;32.97;20.33;;;17.80;41.80;;;;;;2110946;28;20024;-58
2021/04/01 03:47:05;;;;;;;31.58;19.25;;;17.80;41.80;;;;;;2111527;28;20046;-58
2021/04/01 03:48:26;;;;;;;34.05;20.05;;;17.80;42.00;;;;;;2105364;28;20371;-58
2021/04/01 03:49:47;;;;;;;35.47;20.27;;;17.80;41.90;;;;;;2108922;28;20032;-58
2021/04/01 03:51:07;;;;;;;34.55;19.42;;;17.80;41.80;;;;;;2110796;28;20042;-57
2021/04/01 03:52:28;;;;;;;34.28;20.50;;;17.80;41.70;;;;;;2109976;28;20459;-58
2021/04/01 03:53:49;;;;;;;34.45;19.25;;;17.80;41.60;;;;;;2111584;28;20027;-58
2021/04/01 03:56:32;;;;;;;33.45;19.27;;;17.70;41.60;;;;;;2107441;28;20032;-58
2021/04/01 03:58:00;;;;;;;36.03;19.90;;;17.70;41.60;;;;;;2112139;28;20355;-58
2021/04/01 03:59:25;;;;;;;32.47;19.65;;;17.70;41.60;;;;;;2111934;28;20084;-57
2021/04/01 04:13:52;;;;;;;35.78;20.27;;;17.70;41.50;;;;;;2092390;28;20024;-57
2021/04/01 04:15:19;;;;;;;32.88;19.98;;;17.70;41.50;;;;;;2092787;28;20143;-57
2021/04/01 04:16:41;;;;;;;32.75;18.83;;;17.70;41.50;;;;;;2089669;28;20029;-56
2021/04/01 04:18:03;;;;;;;34.38;20.00;;;17.70;41.70;;;;;;2113325;28;20031;-57
2021/04/01 04:19:24;;;;;;;35.38;19.85;;;17.70;41.80;;;;;;2113314;28;20077;-57
2021/04/01 04:20:46;;;;;;;36.97;20.33;;;17.60;41.80;;;;;;2112933;28;20032;-58
2021/04/01 04:22:09;;;;;;;38.85;21.50;;;17.70;42.00;;;;;;2112977;28;20532;-58
2021/04/01 04:23:30;;;;;;;34.83;20.85;;;17.70;42.00;;;;;;2106631;28;20066;-58
2021/04/01 04:24:52;;;;;;;39.55;21.40;;;17.60;42.00;;;;;;2102335;28;20471;-59
2021/04/01 04:26:14;;;;;;;35.83;21.17;;;17.60;42.20;;;;;;2111598;28;20096;-58
2021/04/01 04:28:21;;;;;;;34.83;21.38;;;17.60;42.20;;;;;;2110107;28;20031;-59
2021/04/01 04:29:19;;;;;;;35.25;20.10;;;17.60;42.10;;;;;;2112810;28;20055;-58
2021/04/01 04:30:41;;;;;;;36.20;20.75;;;17.60;42.00;;;;;;2108206;28;20036;-58
2021/04/01 04:32:02;;;;;;;35.03;20.60;;;17.60;42.00;;;;;;2104968;28;20043;-56
2021/04/01 04:33:23;;;;;;;37.83;21.52;;;17.60;42.00;;;;;;2110403;28;20028;-57
2021/04/01 04:34:47;;;;;;;37.22;22.25;;;17.60;42.50;;;;;;2104889;28;20028;-57
2021/04/01 04:36:08;;;;;;;34.50;20.48;;;17.60;42.00;;;;;;2106549;28;20077;-57
2021/04/01 04:37:29;;;;;;;38.53;22.00;;;17.60;42.00;;;;;;2107539;28;20028;-57
2021/04/01 04:38:50;;;;;;;36.88;21.13;;;17.60;41.90;;;;;;2113133;28;20459;-58
2021/04/01 04:40:12;;;;;;;35.53;21.55;;;17.60;41.90;;;;;;2112952;28;20050;-56
2021/04/01 04:41:33;;;;;;;38.05;22.27;;;17.60;41.80;;;;;;2106897;27;20031;-57
2021/04/01 04:42:54;;;;;;;42.15;22.67;;;17.60;41.90;;;;;;2112929;28;20035;-57
2021/04/01 04:44:14;;;;;;;35.53;20.50;;;17.60;42.00;;;;;;2112120;28;20023;-57
2021/04/01 04:45:35;;;;;;;38.97;22.30;;;17.60;42.10;;;;;;2110797;28;20360;-57
2021/04/01 04:46:56;;;;;;;37.42;22.45;;;17.60;42.00;;;;;;2112489;28;20032;-57
2021/04/01 04:48:17;;;;;;;43.00;23.70;;;17.60;41.90;;;;;;2112395;28;20433;-57
2021/04/01 04:49:38;;;;;;;40.45;23.17;;;17.60;41.90;;;;;;2108936;28;20043;-57
2021/04/01 04:50:59;;;;;;;40.25;23.40;;;17.60;41.90;;;;;;2111600;27;20041;-58
2021/04/01 04:52:21;;;;;;;42.95;22.02;;;17.60;41.80;;;;;;2112389;28;20031;-58
2021/04/01 04:53:41;;;;;;;41.53;23.50;;;17.60;41.70;;;;;;2113913;28;20039;-58
2021/04/01 04:55:05;;;;;;;39.90;23.70;;;17.60;41.70;;;;;;2113559;28;20028;-57
2021/04/01 04:56:26;;;;;;;36.90;21.15;;;17.60;42.00;;;;;;2109276;28;20435;-57
2021/04/01 04:59:42;;;;;;;43.65;23.00;;;17.60;42.10;;;;;;2106746;28;20097;-57
2021/04/01 05:05:43;;;;;;;41.35;23.38;;;17.60;41.80;;;;;;2107669;28;20020;-57
2021/04/01 05:07:04;;;;;;;38.03;21.80;;;17.60;41.80;;;;;;2113762;28;20054;-58
2021/04/01 05:08:25;;;;;;;39.30;23.08;;;17.60;41.90;;;;;;2112410;28;20083;-58
2021/04/01 05:09:46;;;;;;;41.53;23.42;;;17.50;42.00;;;;;;2112379;28;20122;-57
2021/04/01 05:11:07;;;;;;;39.03;23.25;;;17.50;41.80;;;;;;2103625;28;20658;-57
2021/04/01 05:12:28;;;;;;;45.72;24.38;;;17.50;41.70;;;;;;2103615;28;20028;-58
2021/04/01 05:13:49;;;;;;;42.83;23.30;;;17.50;41.80;;;;;;2111861;28;20026;-56
2021/04/01 05:15:10;;;;;;;42.00;24.85;;;17.50;41.70;;;;;;2111889;28;20039;-57
2021/04/01 05:16:31;;;;;;;39.95;23.42;;;17.50;41.80;;;;;;2112816;28;20077;-56
2021/04/01 05:17:54;;;;;;;46.67;24.92;;;17.50;41.70;;;;;;2112058;28;20031;-57
2021/04/01 05:19:16;;;;;;;46.25;26.02;;;17.50;41.60;;;;;;2104406;28;20036;-57
2021/04/01 05:20:37;;;;;;;42.35;24.42;;;17.50;41.50;;;;;;2110789;28;20076;-56
2021/04/01 05:22:09;;;;;;;43.55;23.60;;;17.50;41.50;;;;;;2110909;28;20048;-57
2021/04/01 05:23:36;;;;;;;42.65;24.50;;;17.50;41.40;;;;;;2109016;27;20043;-57
2021/04/01 05:24:57;;;;;;;52.50;26.02;;;17.50;41.40;;;;;;2113699;28;20681;-57
2021/04/01 05:28:06;;;;;;;43.80;23.65;;;17.50;41.50;;;;;;2109474;28;20019;-57
2021/04/01 05:29:30;;;;;;;43.47;24.27;;;17.50;41.40;;;;;;2112929;28;20378;-56
2021/04/01 05:30:52;;;;;;;42.15;23.40;;;17.50;41.40;;;;;;2109594;28;20042;-57
2021/04/01 05:32:13;;;;;;;42.47;23.67;;;17.50;41.60;;;;;;2113112;28;20042;-57
2021/04/01 05:33:37;;;;;;;45.80;24.75;;;17.40;41.50;;;;;;2097900;28;20368;-57
2021/04/01 05:35:00;;;;;;;42.08;24.42;;;17.40;41.40;;;;;;2111671;28;20047;-56
2021/04/01 05:36:24;;;;;;;45.45;25.52;;;17.40;41.40;;;;;;2112399;28;20115;-57
2021/04/01 05:37:45;;;;;;;46.03;24.23;;;17.50;41.40;;;;;;2108759;28;20034;-56
2021/04/01 05:39:10;;;;;;;44.08;25.23;;;17.40;41.30;;;;;;2112818;28;20031;-57
2021/04/01 05:40:32;;;;;;;43.75;25.88;;;17.40;41.30;;;;;;2111601;28;20046;-56
2021/04/01 05:41:54;;;;;;;45.65;24.83;;;17.40;41.20;;;;;;2109449;28;20804;-56
2021/04/01 05:43:19;;;;;;;45.40;25.88;;;17.40;41.30;;;;;;2111601;28;20573;-57
2021/04/01 05:44:43;;;;;;;47.72;25.98;;;17.40;41.30;;;;;;2108031;28;20063;-55
2021/04/01 05:46:14;;;;;;;42.47;24.30;;;17.40;41.40;;;;;;2110571;28;20374;-57
2021/04/01 05:56:12;;;;;;;43.65;24.02;;;17.40;41.20;;;;;;2109660;28;20469;-57
2021/04/01 05:57:51;;;;;;;42.65;22.85;;;17.40;41.20;;;;;;2104898;28;20039;-59
2021/04/01 06:02:36;;;;;;;41.13;24.10;;;17.40;41.50;;;;;;2112424;28;20026;-58
2021/04/01 06:05:47;;;;;;;41.47;23.88;;;17.40;42.00;;;;;;2111642;28;20423;-57
2021/04/01 06:07:21;;;;;;;46.00;25.33;;;17.30;41.50;;;;;;2111384;28;20346;-58
2021/04/01 06:08:48;;;;;;;45.50;25.20;;;17.40;41.70;;;;;;2112275;28;20507;-58
2021/04/01 06:10:10;;;;;;;43.67;25.90;;;17.40;41.70;;;;;;2111572;28;20078;-58
2021/04/01 06:11:31;;;;;;;45.33;25.75;;;17.30;41.70;;;;;;2111266;28;20459;-58
2021/04/01 06:12:52;;;;;;;45.17;24.92;;;17.40;41.80;;;;;;2113225;28;20032;-58
2021/04/01 06:14:19;;;;;;;42.60;24.70;;;17.40;42.10;;;;;;2112743;28;20028;-59
2021/04/01 06:15:44;;;;;;;44.00;25.92;;;17.40;42.10;;;;;;2108967;28;20560;-58
2021/04/01 06:17:07;;;;;;;45.75;24.42;;;17.40;42.10;;;;;;2112117;28;20034;-58
2021/04/01 06:18:32;;;;;;;48.78;26.10;;;17.40;42.10;;;;;;2111982;28;20039;-58
2021/04/01 06:19:57;;;;;;;44.95;25.02;;;17.40;42.10;;;;;;2109524;28;20051;-59
2021/04/01 06:21:23;;;;;;;43.83;25.23;;;17.40;42.20;;;;;;2103320;28;20032;-55
2021/04/01 06:22:44;;;;;;;38.15;23.73;;;17.40;42.30;;;;;;2106502;28;20526;-59
2021/04/01 06:24:24;;;;;;;43.45;23.25;;;17.40;42.20;;;;;;2113061;28;20059;-57
2021/04/01 06:25:51;;;;;;;38.75;22.20;;;17.40;42.50;;;;;;2107892;28;20040;-58
2021/04/01 06:27:26;;;;;;;33.35;20.70;;;17.40;42.30;;;;;;2113039;28;20023;-58
2021/04/01 06:28:57;;;;;;;35.83;21.75;;;17.40;42.30;;;;;;2109247;28;20030;-56
2021/04/01 06:32:23;;;;;;;40.22;22.05;;;17.40;42.30;;;;;;2101589;28;20089;-58
2021/04/01 06:33:50;;;;;;;38.95;22.70;;;17.40;42.50;;;;;;2108404;28;20035;-58
2021/04/01 06:35:31;;;;;;;38.60;21.40;;;17.50;42.50;;;;;;2113307;28;20118;-58
2021/04/01 06:36:55;;;;;;;35.08;21.08;;;17.50;42.50;;;;;;2100077;28;20035;-57
2021/04/01 06:38:20;;;;;;;38.55;21.80;;;17.50;42.30;;;;;;2109080;28;20031;-57
2021/04/01 06:39:41;;;;;;;36.70;21.65;;;17.50;42.40;;;;;;2112395;27;20046;-58
2021/04/01 06:41:09;;;;;;;38.42;22.55;;;17.50;42.50;;;;;;2112252;28;20015;-58
2021/04/01 06:42:41;;;;;;;35.92;22.20;;;17.50;42.60;;;;;;2107233;28;20656;-57
2021/04/01 06:44:34;;;;;;;37.28;21.67;;;17.50;42.80;;;;;;2112518;28;20037;-59
2021/04/01 06:46:01;;;;;;;37.15;21.77;;;17.50;43.20;;;;;;2112486;28;20042;-57
2021/04/01 06:47:24;;;;;;;33.47;20.48;;;17.50;42.90;;;;;;2104459;28;20460;-58
2021/04/01 06:50:26;;;;;;;35.13;21.93;;;17.50;43.00;;;;;;2112343;28;20495;-58
2021/04/01 06:51:58;;;;;;;34.75;21.58;;;17.60;43.30;;;;;;2112283;28;20659;-58
2021/04/01 06:53:25;;;;;;;40.38;22.05;;;17.50;43.40;;;;;;2112603;28;20036;-56
2021/04/01 06:55:30;;;;;;;38.10;21.63;;;17.60;43.40;;;;;;2110971;28;20046;-59
2021/04/01 06:58:23;;;;;;;38.40;23.70;;;17.60;43.10;;;;;;2113038;28;20507;-57
2021/04/01 07:00:07;;;;;;;42.70;22.80;;;17.60;43.10;;;;;;2104985;28;20032;-58
2021/04/01 07:01:42;;;;;;;37.15;21.55;;;17.70;43.30;;;;;;2112616;28;20028;-59
2021/04/01 07:03:17;;;;;;;43.90;21.92;;;17.70;43.30;;;;;;2111907;28;20039;-57
2021/04/01 07:04:40;;;;;;;39.75;22.88;;;17.70;43.20;;;;;;2108207;28;20031;-58
2021/04/01 07:06:06;;;;;;;39.30;22.70;;;17.80;43.20;;;;;;2111725;28;20023;-57
2021/04/01 07:07:28;;;;;;;43.17;24.65;;;17.80;43.20;;;;;;2108680;28;20032;-57
2021/04/01 07:10:28;;;;;;;42.05;24.40;;;17.80;43.30;;;;;;2112389;28;20053;-58
2021/04/01 07:11:51;;;;;;;39.53;23.65;;;17.90;43.30;;;;;;2107898;28;20026;-57
2021/04/01 07:13:18;;;;;;;49.58;25.10;;;17.90;43.30;;;;;;2112682;28;20023;-58
2021/04/01 07:14:42;;;;;;;39.30;23.65;;;17.90;43.30;;;;;;2113167;28;20035;-58
2021/04/01 07:16:11;;;;;;;39.10;23.98;;;17.90;43.20;;;;;;2111531;28;20749;-57
2021/04/01 07:17:47;;;;;;;44.55;25.52;;;18.00;43.30;;;;;;2112188;28;20051;-57
2021/04/01 07:20:54;;;;;;;45.40;25.92;;;18.00;43.10;;;;;;2106869;28;20526;-56
2021/04/01 07:22:52;;;;;;;44.80;26.08;;;18.10;43.30;;;;;;2112353;28;20410;-58
2021/04/01 07:30:46;;;;;;;45.42;25.45;;;18.10;43.20;;;;;;2112570;28;20039;-57
2021/04/01 07:32:02;;;;;;;48.00;25.50;;;18.30;43.00;;;;;;2104270;28;20024;-59
2021/04/01 07:35:46;;;;;;;55.80;25.58;;;18.40;42.80;;;;;;2111564;28;20493;-58
2021/04/01 07:47:32;;;;;;;49.22;28.17;;;18.70;42.80;;;;;;2114770;28;20103;-58
2021/04/01 07:48:59;;;;;;;46.47;26.92;;;18.70;42.80;;;;;;2113408;28;20471;-58
2021/04/01 07:50:23;;;;;;;49.33;28.30;;;18.80;42.70;;;;;;2112666;28;20047;-58
2021/04/01 07:51:58;;;;;;;55.65;29.60;;;18.80;42.60;;;;;;2111103;28;20373;-58
2021/04/01 07:53:24;;;;;;;52.47;29.42;;;18.90;42.60;;;;;;2106201;28;20385;-57
2021/04/01 07:56:21;;;;;;;52.47;28.25;;;19.00;42.30;;;;;;2111972;28;20102;-58
2021/04/01 07:59:49;;;;;;;52.05;28.73;;;19.00;42.20;;;;;;2109473;28;20043;-58
2021/04/01 08:01:34;;;;;;;49.58;27.50;;;19.10;42.20;;;;;;2112653;27;20042;-58
2021/04/01 08:04:17;;;;;;;52.00;28.92;;;19.20;42.00;;;;;;2112280;28;20027;-58
2021/04/01 08:05:42;;;;;;;52.83;28.10;;;19.30;42.00;;;;;;2106078;28;20032;-58
2021/04/01 08:07:11;;;;;;;54.63;27.25;;;19.30;41.40;;;;;;2108872;28;20032;-59
2021/04/01 08:08:37;;;;;;;51.40;26.92;;;19.30;41.00;;;;;;2111545;28;20063;-58
2021/04/01 08:10:04;;;;;;;51.10;26.67;;;19.40;40.80;;;;;;2110119;28;20024;-58
2021/04/01 08:11:29;;;;;;;56.03;28.33;;;19.40;40.80;;;;;;2113218;27;20031;-59
2021/04/01 08:12:56;;;;;;;48.05;26.45;;;19.50;40.70;;;;;;2111882;28;20049;-58
2021/04/01 08:14:36;;;;;;;50.95;25.95;;;19.50;40.50;;;;;;2105555;28;20233;-58